createdAt,value
2019-03-16T00:02:55.000Z,99634.58
2019-03-16T00:07:59.336Z,99631.06
2019-03-16T00:13:03.743Z,99625.30
2019-03-16T00:18:07.942Z,99609.00
2019-03-16T00:23:12.182Z,99610.72
2019-03-16T00:28:16.301Z,99603.70
2019-03-16T00:33:20.543Z,99614.30
2019-03-16T00:38:24.944Z,99600.69
2019-03-16T00:43:29.061Z,99596.39
2019-03-16T00:48:33.184Z,99596.89
2019-03-16T00:53:37.622Z,99591.48
2019-03-16T00:58:41.801Z,99577.58
2019-03-16T01:03:45.903Z,99569.13
2019-03-16T01:08:50.117Z,99565.55
2019-03-16T01:13:54.394Z,99558.06
2019-03-16T01:18:58.618Z,99549.53
2019-03-16T01:24:02.783Z,99544.70
2019-03-16T01:29:07.040Z,99530.12
2019-03-16T01:34:11.441Z,99526.83
2019-03-16T01:39:15.720Z,99526.08
2019-03-16T01:44:19.904Z,99512.07
2019-03-16T01:49:24.102Z,99511.89
2019-03-16T01:54:28.315Z,99505.62
2019-03-16T01:59:32.640Z,99492.75
2019-03-16T02:04:36.801Z,99485.55
2019-03-16T02:09:41.101Z,99482.79
2019-03-16T02:14:45.240Z,99479.28
2019-03-16T02:19:49.563Z,99478.42
2019-03-16T02:24:53.723Z,99477.38
2019-03-16T02:29:57.929Z,99471.14
2019-03-16T02:35:02.098Z,99452.47
2019-03-16T02:40:06.764Z,99455.80
2019-03-16T02:45:11.058Z,99437.31
2019-03-16T02:50:15.334Z,99437.42
2019-03-16T02:55:19.520Z,99421.34
2019-03-16T03:00:23.751Z,99398.90
2019-03-16T03:05:27.957Z,99407.43
2019-03-16T03:10:32.087Z,99382.77
2019-03-16T03:15:36.323Z,99377.08
2019-03-16T03:20:40.447Z,99368.77
2019-03-16T03:25:44.640Z,99363.75
2019-03-16T03:30:48.956Z,99359.20
2019-03-16T03:35:53.202Z,99345.83
2019-03-16T03:41:01.477Z,99323.03
2019-03-16T03:46:03.323Z,99344.50
2019-03-16T03:51:07.572Z,99327.66
2019-03-16T03:56:11.903Z,99326.89
2019-03-16T04:01:16.146Z,99317.26
2019-03-16T04:06:20.476Z,99329.19
2019-03-16T04:11:24.660Z,99311.67
2019-03-16T04:16:28.786Z,99305.91
2019-03-16T04:21:32.983Z,99301.08
2019-03-16T04:26:37.140Z,99305.91
2019-03-16T04:31:41.255Z,99301.77
2019-03-16T04:36:45.467Z,99286.45
2019-03-16T04:41:49.778Z,99280.88
2019-03-16T04:46:53.941Z,99269.84
2019-03-16T04:51:58.340Z,99265.31
2019-03-16T04:57:02.643Z,99255.22
2019-03-16T05:02:07.016Z,99252.13
2019-03-16T05:07:11.186Z,99253.81
2019-03-16T05:12:15.300Z,99236.84
2019-03-16T05:17:19.479Z,99232.70
2019-03-16T05:22:23.661Z,99230.92
2019-03-16T05:27:27.782Z,99213.37
2019-03-16T05:32:32.027Z,99205.55
2019-03-16T05:37:36.276Z,99200.25
2019-03-16T05:42:40.644Z,99194.20
2019-03-16T05:47:44.802Z,99177.57
2019-03-16T05:52:48.964Z,99170.67
2019-03-16T05:57:53.342Z,99161.98
2019-03-16T06:02:57.502Z,99153.81
2019-03-16T06:08:01.763Z,99140.25
2019-03-16T06:13:06.041Z,99138.77
2019-03-16T06:18:13.098Z,99120.97
2019-03-16T06:23:16.062Z,99112.67
2019-03-16T06:28:20.202Z,99104.06
2019-03-16T06:33:24.365Z,99107.95
2019-03-16T06:38:28.541Z,99098.92
2019-03-16T06:43:32.720Z,99089.06
2019-03-16T06:48:36.881Z,99071.91
2019-03-16T06:53:41.024Z,99068.94
2019-03-16T06:58:45.223Z,99068.73
2019-03-16T07:03:49.562Z,99064.64
2019-03-16T07:08:53.740Z,99072.95
2019-03-16T07:13:57.920Z,99065.80
2019-03-16T07:19:02.082Z,99064.62
2019-03-16T07:24:06.324Z,99055.34
2019-03-16T07:29:10.521Z,99046.92
2019-03-16T07:34:14.700Z,99065.20
2019-03-16T07:39:18.822Z,99054.87
2019-03-16T07:44:23.100Z,99058.64
2019-03-16T07:49:27.284Z,99052.62
2019-03-16T07:54:31.622Z,99034.61
2019-03-16T07:59:37.236Z,99036.64
2019-03-16T08:04:43.521Z,99039.97
2019-03-16T08:09:47.443Z,99027.06
2019-03-16T08:14:51.611Z,99015.31
2019-03-16T08:19:55.803Z,99005.84
2019-03-16T08:25:00.337Z,99009.82
2019-03-16T08:30:04.999Z,99003.61
2019-03-16T08:35:10.483Z,98980.80
2019-03-16T08:40:14.651Z,98979.48
2019-03-16T08:45:19.022Z,98979.48
2019-03-16T08:50:23.123Z,98972.85
2019-03-16T08:55:27.560Z,98972.91
2019-03-16T09:00:31.759Z,98973.89
2019-03-16T09:05:35.931Z,98980.20
2019-03-16T09:10:40.122Z,98966.34
2019-03-16T09:15:44.303Z,98967.28
2019-03-16T09:20:49.442Z,98956.28
2019-03-16T09:25:54.000Z,98947.59
2019-03-16T09:30:58.205Z,98948.06
2019-03-16T09:36:04.983Z,98941.30
2019-03-16T09:41:09.161Z,98923.53
2019-03-16T09:46:13.381Z,98929.09
2019-03-16T09:51:17.522Z,98915.84
2019-03-16T09:56:21.681Z,98923.88
2019-03-16T10:01:25.920Z,98919.44
2019-03-16T10:06:30.060Z,98915.03
2019-03-16T10:11:34.250Z,98926.48
2019-03-16T10:16:38.420Z,98914.05
2019-03-16T10:21:42.563Z,98912.59
2019-03-16T10:26:46.982Z,98893.36
2019-03-16T10:31:51.141Z,98887.06
2019-03-16T10:36:55.302Z,98879.23
2019-03-16T10:42:02.566Z,98855.84
2019-03-16T10:47:06.900Z,98861.95
2019-03-16T10:52:11.120Z,98838.27
2019-03-16T10:57:15.420Z,98844.38
2019-03-16T11:02:21.803Z,98842.43
2019-03-16T11:07:26.143Z,98808.84
2019-03-16T11:12:31.599Z,98808.84
2019-03-16T11:17:35.774Z,98818.34
2019-03-16T11:22:39.939Z,98780.25
2019-03-16T11:27:44.123Z,98781.09
2019-03-16T11:32:48.586Z,98768.66
2019-03-16T11:37:52.900Z,98733.27
2019-03-16T11:42:57.082Z,98739.36
2019-03-16T11:48:01.372Z,98731.89
2019-03-16T11:53:05.737Z,98716.80
2019-03-16T11:58:13.106Z,98691.11
2019-03-16T12:03:17.241Z,98695.20
2019-03-16T12:08:21.553Z,98688.30
2019-03-16T12:13:25.760Z,98656.62
2019-03-16T12:18:29.946Z,98681.80
2019-03-16T12:23:34.277Z,98653.45
2019-03-16T12:28:41.495Z,98625.75
2019-03-16T12:33:45.644Z,98649.77
2019-03-16T12:38:49.863Z,98636.64
2019-03-16T12:43:54.023Z,98629.06
2019-03-16T12:48:58.341Z,98635.92
2019-03-16T12:54:02.569Z,98621.69
2019-03-16T12:59:10.784Z,98607.95
2019-03-16T13:04:12.603Z,98596.37
2019-03-16T13:09:16.863Z,98582.63
2019-03-16T13:14:21.003Z,98556.16
2019-03-16T13:19:25.181Z,98546.86
2019-03-16T13:24:29.321Z,98539.86
2019-03-16T13:29:33.700Z,98516.58
2019-03-16T13:34:37.903Z,98506.25
2019-03-16T13:39:42.036Z,98519.50
2019-03-16T13:44:48.523Z,98492.14
2019-03-16T13:49:52.924Z,98482.48
2019-03-16T13:54:57.123Z,98461.89
2019-03-16T14:00:11.288Z,98466.98
2019-03-16T14:05:10.161Z,98468.20
2019-03-16T14:10:16.980Z,98456.57
2019-03-16T14:15:21.182Z,98426.44
2019-03-16T14:20:25.362Z,98424.61
2019-03-16T14:25:29.897Z,98412.17
2019-03-16T14:30:41.038Z,98394.94
2019-03-16T14:35:40.008Z,98375.95
2019-03-16T14:40:44.223Z,98378.74
2019-03-16T14:45:49.153Z,98351.05
2019-03-16T14:50:54.582Z,98362.98
2019-03-16T14:55:58.762Z,98366.55
2019-03-16T15:01:03.362Z,98345.72
2019-03-16T15:06:07.461Z,98329.34
2019-03-16T15:11:11.683Z,98324.55
2019-03-16T15:16:15.844Z,98311.55
2019-03-16T15:21:20.335Z,98319.06
2019-03-16T15:26:24.494Z,98299.81
2019-03-16T15:31:28.561Z,98288.13
2019-03-16T15:36:34.653Z,98282.26
2019-03-16T15:41:38.801Z,98267.83
2019-03-16T15:46:42.994Z,98258.19
2019-03-16T15:51:47.483Z,98259.17
2019-03-16T15:56:51.658Z,98236.05
2019-03-16T16:01:55.875Z,98235.45
2019-03-16T16:07:00.075Z,98215.20
2019-03-16T16:12:04.596Z,98202.56
2019-03-16T16:17:10.577Z,98220.48
2019-03-16T16:22:17.071Z,98179.66
2019-03-16T16:27:23.850Z,98181.32
2019-03-16T16:32:26.611Z,98193.95
2019-03-16T16:37:30.791Z,98213.78
2019-03-16T16:42:35.093Z,98201.48
2019-03-16T16:47:39.272Z,98208.29
2019-03-16T16:52:46.112Z,98204.35
2019-03-16T16:57:50.619Z,98207.38
2019-03-16T17:02:54.973Z,98208.11
2019-03-16T17:15:33.155Z,98201.19
2019-03-16T17:20:37.499Z,98206.73
2019-03-16T17:25:41.698Z,98209.03
2019-03-16T17:30:45.859Z,98233.05
2019-03-16T17:35:51.726Z,98235.30
2019-03-16T17:40:55.908Z,98240.55
2019-03-16T17:46:00.187Z,98240.77
2019-03-16T17:51:04.354Z,98248.56
2019-03-16T17:56:08.590Z,98258.21
2019-03-16T18:01:15.724Z,98253.05
2019-03-16T18:06:19.790Z,98252.92
2019-03-16T18:11:24.017Z,98250.28
2019-03-16T18:16:28.415Z,98255.12
2019-03-16T18:21:32.590Z,98248.03
2019-03-16T18:26:36.712Z,98252.94
2019-03-16T18:31:40.815Z,98276.89
2019-03-16T18:36:44.978Z,98284.63
2019-03-16T18:41:49.118Z,98282.92
2019-03-16T18:46:53.385Z,98294.89
2019-03-16T18:51:57.595Z,98297.26
2019-03-16T18:57:01.836Z,98279.94
2019-03-16T19:02:05.972Z,98293.25
2019-03-16T19:07:10.105Z,98306.88
2019-03-16T19:12:14.235Z,98326.89
2019-03-16T19:17:18.328Z,98350.08
2019-03-16T19:22:22.969Z,98344.78
2019-03-16T19:27:27.155Z,98355.23
2019-03-16T19:32:34.017Z,98362.06
2019-03-16T19:37:39.956Z,98374.27
2019-03-16T19:42:46.562Z,98376.70
2019-03-16T19:47:52.907Z,98370.67
2019-03-16T19:52:56.977Z,98388.91
2019-03-16T19:58:01.226Z,98389.97
2019-03-16T20:03:05.353Z,98395.01
2019-03-16T20:08:09.530Z,98409.37
2019-03-16T20:13:13.636Z,98405.56
2019-03-16T20:18:17.730Z,98410.89
2019-03-16T20:23:22.053Z,98411.27
2019-03-16T20:28:26.176Z,98421.20
2019-03-16T20:33:30.343Z,98428.98
2019-03-16T20:38:34.497Z,98436.28
2019-03-16T20:43:38.747Z,98441.77
2019-03-16T20:48:43.162Z,98449.11
2019-03-16T20:53:50.252Z,98453.45
2019-03-16T20:58:54.510Z,98463.34
2019-03-16T21:03:58.702Z,98460.23
2019-03-16T21:09:03.736Z,98460.55
2019-03-16T21:14:08.107Z,98479.89
2019-03-16T21:19:12.214Z,98490.52
2019-03-16T21:24:16.509Z,98493.14
2019-03-16T21:29:20.888Z,98501.44
2019-03-16T21:34:24.975Z,98508.07
2019-03-16T21:39:29.020Z,98503.38
2019-03-16T21:44:34.931Z,98517.58
2019-03-16T21:49:39.166Z,98518.73
2019-03-16T21:54:43.238Z,98526.93
2019-03-16T21:59:47.465Z,98549.03
2019-03-16T22:04:51.665Z,98544.39
2019-03-16T22:09:55.826Z,98551.23
2019-03-16T22:14:59.921Z,98569.81
2019-03-16T22:20:04.588Z,98578.96
2019-03-16T22:25:08.881Z,98580.27
2019-03-16T22:30:13.307Z,98582.49
2019-03-16T22:35:17.495Z,98594.18
2019-03-16T22:40:21.709Z,98601.92
2019-03-16T22:45:26.945Z,98596.46
2019-03-16T22:50:31.074Z,98605.73
2019-03-16T22:55:35.258Z,98604.59
2019-03-16T23:00:40.277Z,98622.61
2019-03-16T23:05:44.375Z,98620.49
2019-03-16T23:10:48.552Z,98635.48
2019-03-16T23:15:52.712Z,98637.33
2019-03-16T23:20:56.925Z,98639.61
2019-03-16T23:26:01.247Z,98649.74
2019-03-16T23:31:05.443Z,98661.52
2019-03-16T23:36:09.534Z,98667.28
2019-03-16T23:41:13.736Z,98672.87
2019-03-16T23:46:17.943Z,98678.64
2019-03-16T23:51:21.966Z,98673.79
2019-03-16T23:56:26.399Z,98683.13
